sensor_id;sensor_type;location;lat;lon;timestamp;P1;durP1;ratioP1;P2;durP2;ratioP2
64235;SDS011;50564;47.402;9.740;2023-04-15T00:04:26;4.28;;;1.67;;
64235;SDS011;50564;47.402;9.740;2023-04-15T00:09:27;5.57;;;1.77;;
64235;SDS011;50564;47.402;9.740;2023-04-15T00:14:28;2.60;;;1.42;;
64235;SDS011;50564;47.402;9.740;2023-04-15T00:19:29;4.82;;;2.00;;
64235;SDS011;50564;47.402;9.740;2023-04-15T00:24:30;4.78;;;2.35;;
64235;SDS011;50564;47.402;9.740;2023-04-15T00:29:30;4.85;;;2.45;;
64235;SDS011;50564;47.402;9.740;2023-04-15T00:34:31;8.57;;;2.80;;
64235;SDS011;50564;47.402;9.740;2023-04-15T00:39:32;5.18;;;2.22;;
64235;SDS011;50564;47.402;9.740;2023-04-15T00:44:33;5.78;;;1.92;;
64235;SDS011;50564;47.402;9.740;2023-04-15T00:49:34;2.97;;;1.63;;
64235;SDS011;50564;47.402;9.740;2023-04-15T00:54:35;4.40;;;2.33;;
64235;SDS011;50564;47.402;9.740;2023-04-15T00:59:36;5.78;;;2.88;;
64235;SDS011;50564;47.402;9.740;2023-04-15T01:04:37;4.55;;;1.83;;
64235;SDS011;50564;47.402;9.740;2023-04-15T01:09:38;5.43;;;1.90;;
64235;SDS011;50564;47.402;9.740;2023-04-15T01:14:39;16.20;;;7.22;;
64235;SDS011;50564;47.402;9.740;2023-04-15T01:19:40;8.45;;;3.67;;
64235;SDS011;50564;47.402;9.740;2023-04-15T01:24:42;4.45;;;1.35;;
64235;SDS011;50564;47.402;9.740;2023-04-15T01:29:50;3.13;;;1.33;;
64235;SDS011;50564;47.402;9.740;2023-04-15T01:34:50;6.13;;;1.40;;
64235;SDS011;50564;47.402;9.740;2023-04-15T01:39:51;4.03;;;1.50;;
64235;SDS011;50564;47.402;9.740;2023-04-15T01:44:52;3.42;;;1.25;;
64235;SDS011;50564;47.402;9.740;2023-04-15T01:49:53;3.78;;;1.33;;
64235;SDS011;50564;47.402;9.740;2023-04-15T01:54:53;3.10;;;1.30;;
64235;SDS011;50564;47.402;9.740;2023-04-15T01:59:54;3.38;;;1.30;;
64235;SDS011;50564;47.402;9.740;2023-04-15T02:04:55;3.13;;;1.17;;
64235;SDS011;50564;47.402;9.740;2023-04-15T02:09:55;2.78;;;1.20;;
64235;SDS011;50564;47.402;9.740;2023-04-15T02:14:56;7.18;;;1.60;;
64235;SDS011;50564;47.402;9.740;2023-04-15T02:19:57;5.03;;;1.95;;
64235;SDS011;50564;47.402;9.740;2023-04-15T02:24:58;2.17;;;1.10;;
64235;SDS011;50564;47.402;9.740;2023-04-15T02:29:59;3.25;;;1.15;;
64235;SDS011;50564;47.402;9.740;2023-04-15T02:35:03;2.50;;;1.02;;
64235;SDS011;50564;47.402;9.740;2023-04-15T02:40:08;4.78;;;1.27;;
64235;SDS011;50564;47.402;9.740;2023-04-15T02:45:11;4.53;;;1.40;;
64235;SDS011;50564;47.402;9.740;2023-04-15T02:50:13;5.70;;;2.03;;
64235;SDS011;50564;47.402;9.740;2023-04-15T02:55:15;5.57;;;2.20;;
64235;SDS011;50564;47.402;9.740;2023-04-15T03:00:17;4.20;;;1.77;;
64235;SDS011;50564;47.402;9.740;2023-04-15T03:05:20;5.05;;;2.15;;
64235;SDS011;50564;47.402;9.740;2023-04-15T03:10:24;4.07;;;2.00;;
64235;SDS011;50564;47.402;9.740;2023-04-15T03:15:25;4.35;;;2.10;;
64235;SDS011;50564;47.402;9.740;2023-04-15T03:20:28;5.28;;;2.40;;
64235;SDS011;50564;47.402;9.740;2023-04-15T03:25:28;4.13;;;2.35;;
64235;SDS011;50564;47.402;9.740;2023-04-15T03:30:29;3.88;;;1.77;;
64235;SDS011;50564;47.402;9.740;2023-04-15T03:35:30;3.13;;;1.48;;
64235;SDS011;50564;47.402;9.740;2023-04-15T03:40:30;3.50;;;2.22;;
64235;SDS011;50564;47.402;9.740;2023-04-15T03:45:31;5.07;;;1.33;;
64235;SDS011;50564;47.402;9.740;2023-04-15T03:50:31;4.32;;;1.40;;
64235;SDS011;50564;47.402;9.740;2023-04-15T03:55:32;1.88;;;1.20;;
64235;SDS011;50564;47.402;9.740;2023-04-15T04:00:33;2.45;;;1.40;;
64235;SDS011;50564;47.402;9.740;2023-04-15T04:05:33;4.30;;;1.75;;
64235;SDS011;50564;47.402;9.740;2023-04-15T04:10:36;5.90;;;1.30;;
64235;SDS011;50564;47.402;9.740;2023-04-15T04:15:36;4.95;;;1.27;;
64235;SDS011;50564;47.402;9.740;2023-04-15T04:20:37;3.25;;;1.10;;
64235;SDS011;50564;47.402;9.740;2023-04-15T04:25:38;2.42;;;1.17;;
64235;SDS011;50564;47.402;9.740;2023-04-15T04:30:39;3.17;;;1.10;;
64235;SDS011;50564;47.402;9.740;2023-04-15T04:35:40;5.32;;;2.72;;
64235;SDS011;50564;47.402;9.740;2023-04-15T04:40:40;6.55;;;4.70;;
64235;SDS011;50564;47.402;9.740;2023-04-15T04:45:41;7.72;;;4.35;;
64235;SDS011;50564;47.402;9.740;2023-04-15T04:50:42;10.93;;;5.45;;
64235;SDS011;50564;47.402;9.740;2023-04-15T04:55:42;16.92;;;8.95;;
64235;SDS011;50564;47.402;9.740;2023-04-15T05:00:43;12.93;;;7.18;;
64235;SDS011;50564;47.402;9.740;2023-04-15T05:05:43;8.77;;;5.60;;
64235;SDS011;50564;47.402;9.740;2023-04-15T05:10:45;8.77;;;5.18;;
64235;SDS011;50564;47.402;9.740;2023-04-15T05:15:45;8.52;;;3.90;;
64235;SDS011;50564;47.402;9.740;2023-04-15T05:20:46;6.28;;;2.03;;
64235;SDS011;50564;47.402;9.740;2023-04-15T05:25:49;7.25;;;2.42;;
64235;SDS011;50564;47.402;9.740;2023-04-15T05:30:49;4.97;;;1.88;;
64235;SDS011;50564;47.402;9.740;2023-04-15T05:35:50;4.93;;;2.35;;
64235;SDS011;50564;47.402;9.740;2023-04-15T05:40:51;15.32;;;8.98;;
64235;SDS011;50564;47.402;9.740;2023-04-15T05:45:51;58.38;;;30.05;;
64235;SDS011;50564;47.402;9.740;2023-04-15T05:50:52;44.83;;;21.95;;
64235;SDS011;50564;47.402;9.740;2023-04-15T05:55:53;12.55;;;6.63;;
64235;SDS011;50564;47.402;9.740;2023-04-15T06:00:53;10.00;;;6.03;;
64235;SDS011;50564;47.402;9.740;2023-04-15T06:05:54;9.85;;;4.95;;
64235;SDS011;50564;47.402;9.740;2023-04-15T06:10:54;7.15;;;2.65;;
64235;SDS011;50564;47.402;9.740;2023-04-15T06:15:55;5.25;;;1.98;;
64235;SDS011;50564;47.402;9.740;2023-04-15T06:20:56;4.80;;;1.98;;
64235;SDS011;50564;47.402;9.740;2023-04-15T06:25:56;5.22;;;1.70;;
64235;SDS011;50564;47.402;9.740;2023-04-15T06:30:57;4.70;;;1.95;;
64235;SDS011;50564;47.402;9.740;2023-04-15T06:35:57;11.27;;;4.95;;
64235;SDS011;50564;47.402;9.740;2023-04-15T06:40:58;8.45;;;4.15;;
64235;SDS011;50564;47.402;9.740;2023-04-15T06:45:59;11.10;;;4.35;;
64235;SDS011;50564;47.402;9.740;2023-04-15T06:51:00;7.68;;;4.72;;
64235;SDS011;50564;47.402;9.740;2023-04-15T06:56:01;8.60;;;4.93;;
64235;SDS011;50564;47.402;9.740;2023-04-15T07:01:01;8.40;;;4.22;;
64235;SDS011;50564;47.402;9.740;2023-04-15T07:06:03;5.25;;;3.10;;
64235;SDS011;50564;47.402;9.740;2023-04-15T07:11:05;5.25;;;2.95;;
64235;SDS011;50564;47.402;9.740;2023-04-15T07:16:06;5.75;;;2.10;;
64235;SDS011;50564;47.402;9.740;2023-04-15T07:21:08;3.95;;;1.98;;
64235;SDS011;50564;47.402;9.740;2023-04-15T07:26:08;8.13;;;2.92;;
64235;SDS011;50564;47.402;9.740;2023-04-15T07:31:10;3.78;;;2.05;;
64235;SDS011;50564;47.402;9.740;2023-04-15T07:36:11;5.60;;;2.38;;
64235;SDS011;50564;47.402;9.740;2023-04-15T07:41:12;6.57;;;3.35;;
64235;SDS011;50564;47.402;9.740;2023-04-15T07:46:13;8.45;;;2.65;;
64235;SDS011;50564;47.402;9.740;2023-04-15T07:51:13;4.32;;;2.03;;
64235;SDS011;50564;47.402;9.740;2023-04-15T07:56:14;2.45;;;1.55;;
64235;SDS011;50564;47.402;9.740;2023-04-15T08:01:15;6.32;;;1.92;;
64235;SDS011;50564;47.402;9.740;2023-04-15T08:06:16;3.35;;;1.77;;
64235;SDS011;50564;47.402;9.740;2023-04-15T08:11:16;3.97;;;1.70;;
64235;SDS011;50564;47.402;9.740;2023-04-15T08:16:18;6.22;;;1.90;;
64235;SDS011;50564;47.402;9.740;2023-04-15T08:21:23;6.25;;;1.88;;
64235;SDS011;50564;47.402;9.740;2023-04-15T08:26:24;3.20;;;1.80;;
64235;SDS011;50564;47.402;9.740;2023-04-15T08:31:26;7.10;;;2.10;;
64235;SDS011;50564;47.402;9.740;2023-04-15T08:36:27;5.82;;;1.80;;
64235;SDS011;50564;47.402;9.740;2023-04-15T08:41:28;3.00;;;2.05;;
64235;SDS011;50564;47.402;9.740;2023-04-15T08:46:34;10.83;;;2.73;;
64235;SDS011;50564;47.402;9.740;2023-04-15T08:51:35;5.03;;;2.10;;
64235;SDS011;50564;47.402;9.740;2023-04-15T08:56:37;4.75;;;2.60;;
64235;SDS011;50564;47.402;9.740;2023-04-15T09:01:38;4.32;;;2.10;;
64235;SDS011;50564;47.402;9.740;2023-04-15T09:06:39;4.68;;;2.50;;
64235;SDS011;50564;47.402;9.740;2023-04-15T09:11:40;5.07;;;2.03;;
64235;SDS011;50564;47.402;9.740;2023-04-15T09:17:00;5.38;;;1.83;;
64235;SDS011;50564;47.402;9.740;2023-04-15T09:22:02;4.97;;;1.75;;
64235;SDS011;50564;47.402;9.740;2023-04-15T09:27:03;3.58;;;1.58;;
64235;SDS011;50564;47.402;9.740;2023-04-15T09:32:11;5.55;;;1.90;;
64235;SDS011;50564;47.402;9.740;2023-04-15T09:37:12;2.20;;;1.40;;
64235;SDS011;50564;47.402;9.740;2023-04-15T09:42:15;3.55;;;1.70;;
64235;SDS011;50564;47.402;9.740;2023-04-15T09:47:29;4.85;;;1.65;;
64235;SDS011;50564;47.402;9.740;2023-04-15T09:52:31;4.05;;;1.50;;
64235;SDS011;50564;47.402;9.740;2023-04-15T09:57:35;3.72;;;1.45;;
64235;SDS011;50564;47.402;9.740;2023-04-15T10:02:37;4.55;;;1.63;;
64235;SDS011;50564;47.402;9.740;2023-04-15T10:07:39;3.10;;;1.38;;
64235;SDS011;50564;47.402;9.740;2023-04-15T10:12:41;5.20;;;1.75;;
64235;SDS011;50564;47.402;9.740;2023-04-15T10:17:43;3.60;;;1.70;;
64235;SDS011;50564;47.402;9.740;2023-04-15T10:22:44;4.68;;;1.40;;
64235;SDS011;50564;47.402;9.740;2023-04-15T10:27:46;2.65;;;1.20;;
64235;SDS011;50564;47.402;9.740;2023-04-15T10:32:47;4.20;;;1.45;;
64235;SDS011;50564;47.402;9.740;2023-04-15T10:37:49;3.65;;;1.45;;
64235;SDS011;50564;47.402;9.740;2023-04-15T10:42:50;3.05;;;1.30;;
64235;SDS011;50564;47.402;9.740;2023-04-15T10:47:51;2.83;;;1.00;;
64235;SDS011;50564;47.402;9.740;2023-04-15T10:52:54;4.90;;;1.10;;
64235;SDS011;50564;47.402;9.740;2023-04-15T10:57:59;1.90;;;1.10;;
64235;SDS011;50564;47.402;9.740;2023-04-15T11:03:07;4.63;;;1.50;;
64235;SDS011;50564;47.402;9.740;2023-04-15T11:08:09;3.20;;;1.58;;
64235;SDS011;50564;47.402;9.740;2023-04-15T11:18:11;3.28;;;1.42;;
64235;SDS011;50564;47.402;9.740;2023-04-15T11:23:29;4.30;;;1.50;;
64235;SDS011;50564;47.402;9.740;2023-04-15T11:28:43;3.75;;;1.80;;
64235;SDS011;50564;47.402;9.740;2023-04-15T11:33:45;3.95;;;1.50;;
64235;SDS011;50564;47.402;9.740;2023-04-15T11:43:53;3.38;;;1.52;;
64235;SDS011;50564;47.402;9.740;2023-04-15T11:48:53;2.63;;;1.42;;
64235;SDS011;50564;47.402;9.740;2023-04-15T11:53:54;4.18;;;1.45;;
64235;SDS011;50564;47.402;9.740;2023-04-15T11:58:56;2.65;;;1.70;;
64235;SDS011;50564;47.402;9.740;2023-04-15T12:03:58;4.50;;;1.58;;
64235;SDS011;50564;47.402;9.740;2023-04-15T12:09:02;3.20;;;1.50;;
64235;SDS011;50564;47.402;9.740;2023-04-15T12:14:07;3.35;;;1.58;;
64235;SDS011;50564;47.402;9.740;2023-04-15T12:19:12;3.03;;;1.15;;
64235;SDS011;50564;47.402;9.740;2023-04-15T12:24:13;2.58;;;1.20;;
64235;SDS011;50564;47.402;9.740;2023-04-15T12:29:15;3.92;;;1.30;;
64235;SDS011;50564;47.402;9.740;2023-04-15T12:34:17;3.72;;;1.50;;
64235;SDS011;50564;47.402;9.740;2023-04-15T12:39:26;3.90;;;1.23;;
64235;SDS011;50564;47.402;9.740;2023-04-15T12:44:27;5.85;;;1.63;;
64235;SDS011;50564;47.402;9.740;2023-04-15T12:49:28;5.15;;;1.60;;
64235;SDS011;50564;47.402;9.740;2023-04-15T12:54:30;2.67;;;1.33;;
64235;SDS011;50564;47.402;9.740;2023-04-15T12:59:31;4.53;;;2.00;;
64235;SDS011;50564;47.402;9.740;2023-04-15T13:04:31;2.53;;;1.20;;
64235;SDS011;50564;47.402;9.740;2023-04-15T13:09:32;2.70;;;1.20;;
64235;SDS011;50564;47.402;9.740;2023-04-15T13:14:33;6.00;;;1.65;;
64235;SDS011;50564;47.402;9.740;2023-04-15T13:19:33;6.55;;;1.70;;
64235;SDS011;50564;47.402;9.740;2023-04-15T13:24:35;7.15;;;1.98;;
64235;SDS011;50564;47.402;9.740;2023-04-15T13:29:36;4.97;;;1.80;;
64235;SDS011;50564;47.402;9.740;2023-04-15T13:34:37;5.32;;;1.85;;
64235;SDS011;50564;47.402;9.740;2023-04-15T13:39:38;4.15;;;1.67;;
64235;SDS011;50564;47.402;9.740;2023-04-15T13:44:39;3.92;;;1.48;;
64235;SDS011;50564;47.402;9.740;2023-04-15T13:49:40;4.07;;;1.65;;
64235;SDS011;50564;47.402;9.740;2023-04-15T13:54:40;5.75;;;2.03;;
64235;SDS011;50564;47.402;9.740;2023-04-15T13:59:41;8.30;;;1.90;;
64235;SDS011;50564;47.402;9.740;2023-04-15T14:04:43;4.90;;;1.63;;
64235;SDS011;50564;47.402;9.740;2023-04-15T14:09:43;4.53;;;1.58;;
64235;SDS011;50564;47.402;9.740;2023-04-15T14:14:44;3.30;;;1.75;;
64235;SDS011;50564;47.402;9.740;2023-04-15T14:19:45;5.60;;;1.90;;
64235;SDS011;50564;47.402;9.740;2023-04-15T14:24:46;4.85;;;1.77;;
64235;SDS011;50564;47.402;9.740;2023-04-15T14:29:48;4.72;;;1.45;;
64235;SDS011;50564;47.402;9.740;2023-04-15T14:34:48;3.60;;;1.50;;
64235;SDS011;50564;47.402;9.740;2023-04-15T14:39:49;3.90;;;1.92;;
64235;SDS011;50564;47.402;9.740;2023-04-15T14:44:50;4.03;;;1.77;;
64235;SDS011;50564;47.402;9.740;2023-04-15T14:49:50;5.40;;;1.50;;
64235;SDS011;50564;47.402;9.740;2023-04-15T14:54:51;4.97;;;1.83;;
64235;SDS011;50564;47.402;9.740;2023-04-15T14:59:52;4.32;;;1.90;;
64235;SDS011;50564;47.402;9.740;2023-04-15T15:04:56;5.70;;;1.60;;
64235;SDS011;50564;47.402;9.740;2023-04-15T15:09:57;4.95;;;1.50;;
64235;SDS011;50564;47.402;9.740;2023-04-15T15:14:57;4.22;;;1.58;;
64235;SDS011;50564;47.402;9.740;2023-04-15T15:19:58;5.35;;;2.10;;
64235;SDS011;50564;47.402;9.740;2023-04-15T15:24:59;6.90;;;1.88;;
64235;SDS011;50564;47.402;9.740;2023-04-15T15:30:01;5.05;;;1.95;;
64235;SDS011;50564;47.402;9.740;2023-04-15T15:35:01;3.63;;;1.77;;
64235;SDS011;50564;47.402;9.740;2023-04-15T15:40:05;5.97;;;1.88;;
64235;SDS011;50564;47.402;9.740;2023-04-15T15:45:07;4.68;;;1.60;;
64235;SDS011;50564;47.402;9.740;2023-04-15T15:50:08;6.53;;;2.30;;
64235;SDS011;50564;47.402;9.740;2023-04-15T15:55:09;2.97;;;1.88;;
64235;SDS011;50564;47.402;9.740;2023-04-15T16:00:09;5.22;;;2.10;;
64235;SDS011;50564;47.402;9.740;2023-04-15T16:05:12;6.20;;;2.60;;
64235;SDS011;50564;47.402;9.740;2023-04-15T16:10:13;5.90;;;2.00;;
64235;SDS011;50564;47.402;9.740;2023-04-15T16:15:14;5.82;;;1.63;;
64235;SDS011;50564;47.402;9.740;2023-04-15T16:20:15;5.47;;;1.83;;
64235;SDS011;50564;47.402;9.740;2023-04-15T16:25:15;5.50;;;1.85;;
64235;SDS011;50564;47.402;9.740;2023-04-15T16:30:16;4.75;;;2.30;;
64235;SDS011;50564;47.402;9.740;2023-04-15T16:35:17;5.22;;;1.77;;
64235;SDS011;50564;47.402;9.740;2023-04-15T16:40:19;6.68;;;1.95;;
64235;SDS011;50564;47.402;9.740;2023-04-15T16:45:19;4.90;;;2.30;;
64235;SDS011;50564;47.402;9.740;2023-04-15T16:50:20;4.30;;;2.20;;
64235;SDS011;50564;47.402;9.740;2023-04-15T16:55:21;5.30;;;1.80;;
64235;SDS011;50564;47.402;9.740;2023-04-15T17:00:22;5.35;;;1.88;;
64235;SDS011;50564;47.402;9.740;2023-04-15T17:05:22;5.35;;;1.83;;
64235;SDS011;50564;47.402;9.740;2023-04-15T17:10:23;6.60;;;1.98;;
64235;SDS011;50564;47.402;9.740;2023-04-15T17:15:24;5.47;;;1.58;;
64235;SDS011;50564;47.402;9.740;2023-04-15T17:20:26;7.25;;;2.80;;
64235;SDS011;50564;47.402;9.740;2023-04-15T17:25:27;6.82;;;3.08;;
64235;SDS011;50564;47.402;9.740;2023-04-15T17:30:27;9.48;;;3.90;;
64235;SDS011;50564;47.402;9.740;2023-04-15T17:35:28;4.97;;;2.88;;
64235;SDS011;50564;47.402;9.740;2023-04-15T17:40:30;11.20;;;5.93;;
64235;SDS011;50564;47.402;9.740;2023-04-15T17:45:33;6.80;;;4.10;;
64235;SDS011;50564;47.402;9.740;2023-04-15T17:50:33;9.80;;;4.95;;
64235;SDS011;50564;47.402;9.740;2023-04-15T17:55:34;20.67;;;9.82;;
64235;SDS011;50564;47.402;9.740;2023-04-15T18:00:35;14.05;;;6.60;;
64235;SDS011;50564;47.402;9.740;2023-04-15T18:05:37;8.20;;;5.07;;
64235;SDS011;50564;47.402;9.740;2023-04-15T18:10:38;9.00;;;3.53;;
64235;SDS011;50564;47.402;9.740;2023-04-15T18:15:39;5.90;;;3.08;;
64235;SDS011;50564;47.402;9.740;2023-04-15T18:20:40;5.28;;;2.78;;
64235;SDS011;50564;47.402;9.740;2023-04-15T18:25:40;7.03;;;3.35;;
64235;SDS011;50564;47.402;9.740;2023-04-15T18:30:47;8.75;;;3.70;;
64235;SDS011;50564;47.402;9.740;2023-04-15T18:35:47;8.38;;;3.35;;
64235;SDS011;50564;47.402;9.740;2023-04-15T18:40:48;7.40;;;3.13;;
64235;SDS011;50564;47.402;9.740;2023-04-15T18:45:50;6.93;;;2.65;;
64235;SDS011;50564;47.402;9.740;2023-04-15T18:50:51;3.88;;;2.20;;
64235;SDS011;50564;47.402;9.740;2023-04-15T18:55:53;2.70;;;1.50;;
64235;SDS011;50564;47.402;9.740;2023-04-15T19:00:55;2.53;;;1.50;;
64235;SDS011;50564;47.402;9.740;2023-04-15T19:05:56;7.32;;;2.85;;
64235;SDS011;50564;47.402;9.740;2023-04-15T19:10:57;1.75;;;1.02;;
64235;SDS011;50564;47.402;9.740;2023-04-15T19:15:58;2.13;;;1.30;;
64235;SDS011;50564;47.402;9.740;2023-04-15T19:20:59;8.40;;;3.70;;
64235;SDS011;50564;47.402;9.740;2023-04-15T19:26:00;4.90;;;2.05;;
64235;SDS011;50564;47.402;9.740;2023-04-15T19:31:01;1.45;;;1.27;;
64235;SDS011;50564;47.402;9.740;2023-04-15T19:36:03;3.08;;;1.60;;
64235;SDS011;50564;47.402;9.740;2023-04-15T19:41:05;3.55;;;1.60;;
64235;SDS011;50564;47.402;9.740;2023-04-15T19:46:05;4.88;;;3.03;;
64235;SDS011;50564;47.402;9.740;2023-04-15T19:51:06;4.18;;;2.47;;
64235;SDS011;50564;47.402;9.740;2023-04-15T19:56:07;1.52;;;1.10;;
64235;SDS011;50564;47.402;9.740;2023-04-15T20:01:08;1.90;;;1.00;;
64235;SDS011;50564;47.402;9.740;2023-04-15T20:06:09;2.17;;;1.60;;
64235;SDS011;50564;47.402;9.740;2023-04-15T20:11:11;3.92;;;2.00;;
64235;SDS011;50564;47.402;9.740;2023-04-15T20:16:11;5.28;;;2.95;;
64235;SDS011;50564;47.402;9.740;2023-04-15T20:21:12;3.20;;;2.10;;
64235;SDS011;50564;47.402;9.740;2023-04-15T20:26:13;3.97;;;2.22;;
64235;SDS011;50564;47.402;9.740;2023-04-15T20:31:14;2.78;;;1.50;;
64235;SDS011;50564;47.402;9.740;2023-04-15T20:36:15;1.45;;;1.10;;
64235;SDS011;50564;47.402;9.740;2023-04-15T20:41:16;2.85;;;1.30;;
64235;SDS011;50564;47.402;9.740;2023-04-15T20:46:16;1.33;;;1.00;;
64235;SDS011;50564;47.402;9.740;2023-04-15T20:51:17;2.95;;;2.10;;
64235;SDS011;50564;47.402;9.740;2023-04-15T20:56:18;3.25;;;1.98;;
64235;SDS011;50564;47.402;9.740;2023-04-15T21:01:19;4.93;;;1.90;;
64235;SDS011;50564;47.402;9.740;2023-04-15T21:06:19;2.13;;;1.63;;
64235;SDS011;50564;47.402;9.740;2023-04-15T21:11:20;3.53;;;2.20;;
64235;SDS011;50564;47.402;9.740;2023-04-15T21:16:21;2.95;;;1.83;;
64235;SDS011;50564;47.402;9.740;2023-04-15T21:21:21;3.30;;;1.80;;
64235;SDS011;50564;47.402;9.740;2023-04-15T21:26:22;2.63;;;1.58;;
64235;SDS011;50564;47.402;9.740;2023-04-15T21:31:23;2.40;;;1.63;;
64235;SDS011;50564;47.402;9.740;2023-04-15T21:36:23;2.80;;;1.58;;
64235;SDS011;50564;47.402;9.740;2023-04-15T21:41:25;2.40;;;1.65;;
64235;SDS011;50564;47.402;9.740;2023-04-15T21:46:26;2.40;;;1.70;;
64235;SDS011;50564;47.402;9.740;2023-04-15T21:51:26;4.40;;;2.55;;
64235;SDS011;50564;47.402;9.740;2023-04-15T21:56:27;6.63;;;4.55;;
64235;SDS011;50564;47.402;9.740;2023-04-15T22:01:28;6.85;;;4.93;;
64235;SDS011;50564;47.402;9.740;2023-04-15T22:06:28;5.82;;;4.65;;
64235;SDS011;50564;47.402;9.740;2023-04-15T22:11:30;6.70;;;4.22;;
64235;SDS011;50564;47.402;9.740;2023-04-15T22:16:31;5.75;;;4.53;;
64235;SDS011;50564;47.402;9.740;2023-04-15T22:21:32;5.97;;;4.68;;
64235;SDS011;50564;47.402;9.740;2023-04-15T22:26:33;6.97;;;4.93;;
64235;SDS011;50564;47.402;9.740;2023-04-15T22:31:34;10.52;;;6.88;;
64235;SDS011;50564;47.402;9.740;2023-04-15T22:36:35;3.92;;;2.92;;
64235;SDS011;50564;47.402;9.740;2023-04-15T22:41:36;2.42;;;1.90;;
64235;SDS011;50564;47.402;9.740;2023-04-15T22:46:37;3.50;;;1.90;;
64235;SDS011;50564;47.402;9.740;2023-04-15T22:51:37;1.67;;;1.30;;
64235;SDS011;50564;47.402;9.740;2023-04-15T22:56:38;3.30;;;1.67;;
64235;SDS011;50564;47.402;9.740;2023-04-15T23:01:39;2.67;;;1.40;;
64235;SDS011;50564;47.402;9.740;2023-04-15T23:06:39;2.40;;;1.30;;
64235;SDS011;50564;47.402;9.740;2023-04-15T23:11:40;2.10;;;1.20;;
64235;SDS011;50564;47.402;9.740;2023-04-15T23:16:40;2.92;;;1.50;;
64235;SDS011;50564;47.402;9.740;2023-04-15T23:21:41;1.70;;;1.48;;
64235;SDS011;50564;47.402;9.740;2023-04-15T23:26:42;2.88;;;1.90;;
64235;SDS011;50564;47.402;9.740;2023-04-15T23:31:43;1.70;;;1.10;;
64235;SDS011;50564;47.402;9.740;2023-04-15T23:36:43;1.77;;;1.20;;
64235;SDS011;50564;47.402;9.740;2023-04-15T23:41:44;1.10;;;1.00;;
64235;SDS011;50564;47.402;9.740;2023-04-15T23:46:44;1.50;;;0.80;;
64235;SDS011;50564;47.402;9.740;2023-04-15T23:51:45;0.95;;;0.88;;
64235;SDS011;50564;47.402;9.740;2023-04-15T23:56:46;1.77;;;1.17;;
